sensor_id;sensor_type;location;lat;lon;timestamp;pressure;altitude;pressure_sealevel;temperature;humidity
41312;BME280;27061;41.648;24.568;2023-08-06T00:02:09;85119.09;;;22.46;44.35
41312;BME280;27061;41.648;24.568;2023-08-06T00:04:36;85004.56;;;21.66;45.91
41312;BME280;27061;41.648;24.568;2023-08-06T00:07:03;85028.19;;;21.71;46.36
41312;BME280;27061;41.648;24.568;2023-08-06T00:09:30;85028.19;;;21.92;46.12
41312;BME280;27061;41.648;24.568;2023-08-06T00:11:58;85100.03;;;22.36;46.02
41312;BME280;27061;41.648;24.568;2023-08-06T00:14:25;85098.03;;;22.45;46.08
41312;BME280;27061;41.648;24.568;2023-08-06T00:16:52;84956.66;;;21.45;46.28
41312;BME280;27061;41.648;24.568;2023-08-06T00:19:19;85090.91;;;22.36;46.93
41312;BME280;27061;41.648;24.568;2023-08-06T00:21:46;85072.66;;;22.24;45.80
41312;BME280;27061;41.648;24.568;2023-08-06T00:24:13;85067.81;;;22.12;46.12
41312;BME280;27061;41.648;24.568;2023-08-06T00:26:40;85005.50;;;21.73;46.14
41312;BME280;27061;41.648;24.568;2023-08-06T00:29:07;84994.22;;;21.63;45.47
41312;BME280;27061;41.648;24.568;2023-08-06T00:31:34;84921.44;;;21.01;45.92
41312;BME280;27061;41.648;24.568;2023-08-06T00:34:01;85075.19;;;22.17;45.57
41312;BME280;27061;41.648;24.568;2023-08-06T00:36:28;85060.50;;;21.93;46.64
41312;BME280;27061;41.648;24.568;2023-08-06T00:38:55;85053.44;;;22.05;45.91
41312;BME280;27061;41.648;24.568;2023-08-06T00:41:23;84977.81;;;21.33;46.03
41312;BME280;27061;41.648;24.568;2023-08-06T00:43:50;85051.25;;;21.95;46.07
41312;BME280;27061;41.648;24.568;2023-08-06T00:46:18;84957.06;;;21.39;45.60
41312;BME280;27061;41.648;24.568;2023-08-06T00:48:46;85018.41;;;21.91;45.81
41312;BME280;27061;41.648;24.568;2023-08-06T00:51:14;84941.47;;;21.18;46.17
41312;BME280;27061;41.648;24.568;2023-08-06T00:53:42;84929.22;;;21.11;46.20
41312;BME280;27061;41.648;24.568;2023-08-06T00:56:09;84938.66;;;21.18;46.48
41312;BME280;27061;41.648;24.568;2023-08-06T00:58:37;84916.63;;;21.10;46.00
41312;BME280;27061;41.648;24.568;2023-08-06T01:01:05;84920.41;;;21.17;45.83
41312;BME280;27061;41.648;24.568;2023-08-06T01:03:32;84996.09;;;21.66;46.12
41312;BME280;27061;41.648;24.568;2023-08-06T01:06:00;84966.56;;;21.33;46.27
41312;BME280;27061;41.648;24.568;2023-08-06T01:13:46;84999.84;;;21.73;46.38
41312;BME280;27061;41.648;24.568;2023-08-06T01:16:15;84933.25;;;21.14;46.73
41312;BME280;27061;41.648;24.568;2023-08-06T01:18:44;84931.84;;;21.26;46.83
41312;BME280;27061;41.648;24.568;2023-08-06T01:21:16;84996.38;;;21.83;47.06
41312;BME280;27061;41.648;24.568;2023-08-06T01:23:45;84890.50;;;21.12;47.35
41312;BME280;27061;41.648;24.568;2023-08-06T01:26:37;84985.66;;;21.86;47.89
41312;BME280;27061;41.648;24.568;2023-08-06T01:31:43;84934.41;;;21.62;48.65
41312;BME280;27061;41.648;24.568;2023-08-06T01:34:31;84845.03;;;20.75;48.59
41312;BME280;27061;41.648;24.568;2023-08-06T01:37:00;84881.25;;;21.13;49.15
41312;BME280;27061;41.648;24.568;2023-08-06T01:39:28;84902.59;;;21.21;49.48
41312;BME280;27061;41.648;24.568;2023-08-06T01:41:55;85005.09;;;21.79;49.55
41312;BME280;27061;41.648;24.568;2023-08-06T01:44:22;84917.72;;;21.15;49.66
41312;BME280;27061;41.648;24.568;2023-08-06T01:46:49;85026.03;;;21.93;50.04
41312;BME280;27061;41.648;24.568;2023-08-06T01:49:16;84923.69;;;20.99;50.17
41312;BME280;27061;41.648;24.568;2023-08-06T01:51:43;85008.19;;;21.86;49.80
41312;BME280;27061;41.648;24.568;2023-08-06T01:54:10;84871.44;;;20.91;50.32
41312;BME280;27061;41.648;24.568;2023-08-06T01:56:37;84870.25;;;20.99;50.67
41312;BME280;27061;41.648;24.568;2023-08-06T01:59:04;84850.97;;;20.93;51.04
41312;BME280;27061;41.648;24.568;2023-08-06T02:01:31;84872.81;;;21.03;50.65
41312;BME280;27061;41.648;24.568;2023-08-06T02:03:58;84873.47;;;21.03;50.67
41312;BME280;27061;41.648;24.568;2023-08-06T02:06:25;84874.44;;;21.21;50.34
41312;BME280;27061;41.648;24.568;2023-08-06T02:08:52;84982.72;;;22.20;50.25
41312;BME280;27061;41.648;24.568;2023-08-06T02:11:19;84882.53;;;21.38;50.49
41312;BME280;27061;41.648;24.568;2023-08-06T02:13:46;84885.22;;;21.40;50.38
41312;BME280;27061;41.648;24.568;2023-08-06T02:16:17;84985.78;;;22.26;50.27
41312;BME280;27061;41.648;24.568;2023-08-06T02:18:45;84856.50;;;21.48;50.37
41312;BME280;27061;41.648;24.568;2023-08-06T02:21:12;84862.69;;;21.40;49.92
41312;BME280;27061;41.648;24.568;2023-08-06T02:23:39;84967.53;;;22.15;50.71
41312;BME280;27061;41.648;24.568;2023-08-06T02:26:06;84844.28;;;21.19;50.89
41312;BME280;27061;41.648;24.568;2023-08-06T02:28:33;84937.50;;;21.90;51.59
41312;BME280;27061;41.648;24.568;2023-08-06T02:31:00;84859.44;;;21.25;52.89
41312;BME280;27061;41.648;24.568;2023-08-06T02:33:27;84968.06;;;21.96;55.27
41312;BME280;27061;41.648;24.568;2023-08-06T02:36:04;84872.31;;;21.22;56.02
41312;BME280;27061;41.648;24.568;2023-08-06T02:38:32;84942.72;;;21.75;55.22
41312;BME280;27061;41.648;24.568;2023-08-06T02:41:02;84787.03;;;20.59;55.45
41312;BME280;27061;41.648;24.568;2023-08-06T02:43:29;84968.06;;;21.96;55.83
41312;BME280;27061;41.648;24.568;2023-08-06T02:46:00;84896.06;;;21.46;55.56
41312;BME280;27061;41.648;24.568;2023-08-06T02:48:27;84764.13;;;20.55;55.88
41312;BME280;27061;41.648;24.568;2023-08-06T02:50:58;84783.69;;;20.78;55.47
41312;BME280;27061;41.648;24.568;2023-08-06T02:53:29;84985.66;;;21.97;56.76
41312;BME280;27061;41.648;24.568;2023-08-06T02:55:59;84893.38;;;21.33;56.21
41312;BME280;27061;41.648;24.568;2023-08-06T02:58:35;84867.78;;;21.27;55.73
41312;BME280;27061;41.648;24.568;2023-08-06T03:01:22;84869.13;;;21.28;55.72
41312;BME280;27061;41.648;24.568;2023-08-06T03:03:55;84888.16;;;21.38;54.15
41312;BME280;27061;41.648;24.568;2023-08-06T03:06:29;84847.25;;;21.17;53.64
41312;BME280;27061;41.648;24.568;2023-08-06T03:08:58;84875.56;;;21.47;52.02
41312;BME280;27061;41.648;24.568;2023-08-06T03:11:25;84860.38;;;21.32;52.24
41312;BME280;27061;41.648;24.568;2023-08-06T03:13:58;84777.94;;;20.69;52.77
41312;BME280;27061;41.648;24.568;2023-08-06T03:16:26;84835.47;;;21.26;52.75
41312;BME280;27061;41.648;24.568;2023-08-06T03:18:53;84966.22;;;22.14;52.83
41312;BME280;27061;41.648;24.568;2023-08-06T03:21:20;84975.47;;;22.23;52.69
41312;BME280;27061;41.648;24.568;2023-08-06T03:23:48;84943.13;;;21.90;52.62
41312;BME280;27061;41.648;24.568;2023-08-06T03:26:21;84960.31;;;22.18;52.75
41312;BME280;27061;41.648;24.568;2023-08-06T03:28:49;84902.22;;;21.70;52.91
41312;BME280;27061;41.648;24.568;2023-08-06T03:31:16;84956.41;;;22.34;52.93
41312;BME280;27061;41.648;24.568;2023-08-06T03:33:44;84879.41;;;21.63;52.89
41312;BME280;27061;41.648;24.568;2023-08-06T03:36:18;84872.06;;;21.47;53.06
41312;BME280;27061;41.648;24.568;2023-08-06T03:38:46;84950.63;;;22.25;53.18
41312;BME280;27061;41.648;24.568;2023-08-06T03:41:14;84945.69;;;22.05;53.24
41312;BME280;27061;41.648;24.568;2023-08-06T03:43:42;84859.72;;;21.31;53.43
41312;BME280;27061;41.648;24.568;2023-08-06T03:46:14;84926.91;;;21.90;53.67
41312;BME280;27061;41.648;24.568;2023-08-06T03:48:41;84854.38;;;21.38;53.82
41312;BME280;27061;41.648;24.568;2023-08-06T03:51:08;84938.44;;;21.97;54.09
41312;BME280;27061;41.648;24.568;2023-08-06T03:53:37;84828.91;;;21.18;54.13
41312;BME280;27061;41.648;24.568;2023-08-06T03:56:04;84840.44;;;21.25;54.16
41312;BME280;27061;41.648;24.568;2023-08-06T03:58:32;84724.06;;;20.33;54.19
41312;BME280;27061;41.648;24.568;2023-08-06T04:01:03;84836.69;;;21.18;54.41
41312;BME280;27061;41.648;24.568;2023-08-06T04:03:39;84919.25;;;21.78;54.63
41312;BME280;27061;41.648;24.568;2023-08-06T04:06:07;84934.81;;;21.88;54.57
41312;BME280;27061;41.648;24.568;2023-08-06T04:08:35;84925.56;;;21.68;54.79
41312;BME280;27061;41.648;24.568;2023-08-06T04:11:02;84866.50;;;21.02;56.46
41312;BME280;27061;41.648;24.568;2023-08-06T04:13:30;84879.84;;;21.46;56.04
41312;BME280;27061;41.648;24.568;2023-08-06T04:16:04;84905.72;;;21.70;56.88
41312;BME280;27061;41.648;24.568;2023-08-06T04:18:32;84938.84;;;21.91;57.35
41312;BME280;27061;41.648;24.568;2023-08-06T04:21:01;84935.75;;;21.95;56.91
41312;BME280;27061;41.648;24.568;2023-08-06T04:23:28;84920.06;;;21.87;56.73
41312;BME280;27061;41.648;24.568;2023-08-06T04:26:00;84918.59;;;21.88;57.60
41312;BME280;27061;41.648;24.568;2023-08-06T04:28:31;84860.66;;;21.38;57.78
41312;BME280;27061;41.648;24.568;2023-08-06T04:30:59;84914.97;;;21.79;58.19
41312;BME280;27061;41.648;24.568;2023-08-06T04:33:28;84789.63;;;20.95;58.20
41312;BME280;27061;41.648;24.568;2023-08-06T04:35:59;84922.09;;;22.00;57.86
41312;BME280;27061;41.648;24.568;2023-08-06T04:38:26;84938.44;;;21.97;58.15
41312;BME280;27061;41.648;24.568;2023-08-06T04:40:54;84840.81;;;21.30;57.98
41312;BME280;27061;41.648;24.568;2023-08-06T04:43:23;84941.25;;;21.97;57.96
41312;BME280;27061;41.648;24.568;2023-08-06T04:45:52;84837.59;;;21.36;57.56
41312;BME280;27061;41.648;24.568;2023-08-06T04:48:20;84930.91;;;22.15;59.07
41312;BME280;27061;41.648;24.568;2023-08-06T04:50:49;84942.72;;;22.07;58.97
41312;BME280;27061;41.648;24.568;2023-08-06T04:53:17;84768.94;;;20.45;61.14
41312;BME280;27061;41.648;24.568;2023-08-06T04:55:44;84713.47;;;20.12;60.77
41312;BME280;27061;41.648;24.568;2023-08-06T04:58:12;84956.69;;;21.98;61.06
41312;BME280;27061;41.648;24.568;2023-08-06T05:00:39;84829.78;;;20.83;61.57
41312;BME280;27061;41.648;24.568;2023-08-06T05:03:07;84994.94;;;22.16;61.73
41312;BME280;27061;41.648;24.568;2023-08-06T05:05:34;84958.41;;;22.14;61.82
41312;BME280;27061;41.648;24.568;2023-08-06T05:08:01;84879.56;;;21.40;61.26
41312;BME280;27061;41.648;24.568;2023-08-06T05:10:28;84969.84;;;22.02;61.99
41312;BME280;27061;41.648;24.568;2023-08-06T05:12:55;84914.56;;;21.53;62.24
41312;BME280;27061;41.648;24.568;2023-08-06T05:15:23;84874.44;;;21.21;63.47
41312;BME280;27061;41.648;24.568;2023-08-06T05:17:52;84930.91;;;21.72;63.82
41312;BME280;27061;41.648;24.568;2023-08-06T05:20:20;84954.81;;;22.05;63.44
41312;BME280;27061;41.648;24.568;2023-08-06T05:22:47;84922.09;;;22.00;62.74
41312;BME280;27061;41.648;24.568;2023-08-06T05:33:54;84911.44;;;22.32;62.71
41312;BME280;27061;41.648;24.568;2023-08-06T05:36:21;84906.38;;;22.03;63.16
41312;BME280;27061;41.648;24.568;2023-08-06T05:38:48;84936.44;;;22.06;65.66
41312;BME280;27061;41.648;24.568;2023-08-06T05:41:15;84939.38;;;22.04;65.55
41312;BME280;27061;41.648;24.568;2023-08-06T05:43:43;84896.47;;;21.72;64.99
41312;BME280;27061;41.648;24.568;2023-08-06T05:46:10;84961.25;;;22.04;65.06
41312;BME280;27061;41.648;24.568;2023-08-06T05:48:37;84953.31;;;21.85;65.26
41312;BME280;27061;41.648;24.568;2023-08-06T05:51:05;84956.13;;;21.96;65.10
41312;BME280;27061;41.648;24.568;2023-08-06T05:53:33;84935.47;;;21.88;64.78
41312;BME280;27061;41.648;24.568;2023-08-06T05:56:00;84922.75;;;21.89;64.24
41312;BME280;27061;41.648;24.568;2023-08-06T05:58:27;84947.31;;;22.02;64.30
41312;BME280;27061;41.648;24.568;2023-08-06T06:00:56;84939.50;;;21.91;65.79
41312;BME280;27061;41.648;24.568;2023-08-06T06:03:23;84933.59;;;21.96;65.42
41312;BME280;27061;41.648;24.568;2023-08-06T06:05:51;84923.44;;;22.01;66.73
41312;BME280;27061;41.648;24.568;2023-08-06T06:08:18;84886.13;;;21.47;69.86
41312;BME280;27061;41.648;24.568;2023-08-06T06:10:45;84904.75;;;21.63;70.42
41312;BME280;27061;41.648;24.568;2023-08-06T06:13:12;84892.03;;;21.64;69.26
41312;BME280;27061;41.648;24.568;2023-08-06T06:15:39;84889.22;;;21.53;69.69
41312;BME280;27061;41.648;24.568;2023-08-06T06:18:07;84916.44;;;21.78;69.35
41312;BME280;27061;41.648;24.568;2023-08-06T06:20:34;84912.28;;;21.77;71.60
41312;BME280;27061;41.648;24.568;2023-08-06T06:23:01;84910.78;;;21.89;70.65
41312;BME280;27061;41.648;24.568;2023-08-06T06:25:28;84923.81;;;22.05;70.83
41312;BME280;27061;41.648;24.568;2023-08-06T06:27:56;84924.88;;;22.10;71.80
41312;BME280;27061;41.648;24.568;2023-08-06T06:30:23;84937.84;;;22.37;69.54
41312;BME280;27061;41.648;24.568;2023-08-06T06:32:50;84932.22;;;22.37;71.20
41312;BME280;27061;41.648;24.568;2023-08-06T06:35:18;84931.09;;;22.53;69.83
41312;BME280;27061;41.648;24.568;2023-08-06T06:37:45;84935.34;;;22.74;68.62
41312;BME280;27061;41.648;24.568;2023-08-06T06:40:12;84921.22;;;22.84;67.59
41312;BME280;27061;41.648;24.568;2023-08-06T06:42:40;84931.13;;;22.94;67.50
41312;BME280;27061;41.648;24.568;2023-08-06T06:45:09;84936.31;;;23.00;67.60
41312;BME280;27061;41.648;24.568;2023-08-06T06:47:36;84920.88;;;22.99;68.64
41312;BME280;27061;41.648;24.568;2023-08-06T06:50:04;84926.94;;;23.23;68.87
41312;BME280;27061;41.648;24.568;2023-08-06T06:52:31;84909.34;;;23.22;68.48
41312;BME280;27061;41.648;24.568;2023-08-06T06:54:59;84927.50;;;23.45;67.87
41312;BME280;27061;41.648;24.568;2023-08-06T06:57:26;84894.59;;;23.11;67.54
41312;BME280;27061;41.648;24.568;2023-08-06T06:59:55;84927.97;;;23.58;66.08
41312;BME280;27061;41.648;24.568;2023-08-06T07:02:22;84930.22;;;23.66;65.32
41312;BME280;27061;41.648;24.568;2023-08-06T07:04:50;84906.06;;;23.58;65.58
41312;BME280;27061;41.648;24.568;2023-08-06T07:07:17;84947.69;;;23.88;66.86
41312;BME280;27061;41.648;24.568;2023-08-06T07:09:44;84945.69;;;23.86;64.58
41312;BME280;27061;41.648;24.568;2023-08-06T07:12:11;84945.53;;;23.88;63.01
41312;BME280;27061;41.648;24.568;2023-08-06T07:14:39;84889.25;;;23.56;63.60
41312;BME280;27061;41.648;24.568;2023-08-06T07:17:06;84925.44;;;24.12;61.95
41312;BME280;27061;41.648;24.568;2023-08-06T07:19:33;84906.84;;;23.95;61.19
41312;BME280;27061;41.648;24.568;2023-08-06T07:22:00;84920.97;;;24.15;57.53
41312;BME280;27061;41.648;24.568;2023-08-06T07:24:27;84807.56;;;23.24;54.94
41312;BME280;27061;41.648;24.568;2023-08-06T07:26:55;84862.47;;;23.75;55.84
41312;BME280;27061;41.648;24.568;2023-08-06T07:29:22;84922.00;;;24.20;55.78
41312;BME280;27061;41.648;24.568;2023-08-06T07:31:49;84957.56;;;24.36;56.64
41312;BME280;27061;41.648;24.568;2023-08-06T07:34:17;84970.66;;;24.12;50.56
41312;BME280;27061;41.648;24.568;2023-08-06T07:36:45;84933.03;;;23.85;51.29
41312;BME280;27061;41.648;24.568;2023-08-06T07:39:13;84946.66;;;24.02;52.74
41312;BME280;27061;41.648;24.568;2023-08-06T07:41:40;84954.97;;;24.04;52.65
41312;BME280;27061;41.648;24.568;2023-08-06T07:44:08;84969.94;;;24.22;52.81
41312;BME280;27061;41.648;24.568;2023-08-06T07:46:35;84963.31;;;24.25;52.26
41312;BME280;27061;41.648;24.568;2023-08-06T07:49:02;84950.41;;;24.18;56.45
41312;BME280;27061;41.648;24.568;2023-08-06T07:51:29;84938.53;;;23.87;51.10
41312;BME280;27061;41.648;24.568;2023-08-06T07:53:57;84988.38;;;24.01;50.14
41312;BME280;27061;41.648;24.568;2023-08-06T07:56:24;84970.88;;;23.60;50.13
41312;BME280;27061;41.648;24.568;2023-08-06T07:58:51;84991.19;;;23.82;50.44
41312;BME280;27061;41.648;24.568;2023-08-06T08:01:18;85000.44;;;23.91;49.46
41312;BME280;27061;41.648;24.568;2023-08-06T08:03:45;84994.91;;;23.89;51.15
41312;BME280;27061;41.648;24.568;2023-08-06T08:06:13;84964.75;;;23.47;49.42
41312;BME280;27061;41.648;24.568;2023-08-06T08:08:40;85000.84;;;23.66;50.23
41312;BME280;27061;41.648;24.568;2023-08-06T08:11:07;85014.38;;;23.74;50.94
41312;BME280;27061;41.648;24.568;2023-08-06T08:13:34;85004.28;;;23.77;51.55
41312;BME280;27061;41.648;24.568;2023-08-06T08:16:02;84968.28;;;23.67;54.93
41312;BME280;27061;41.648;24.568;2023-08-06T08:18:29;84997.28;;;23.76;51.77
41312;BME280;27061;41.648;24.568;2023-08-06T08:20:58;84998.16;;;23.64;53.05
41312;BME280;27061;41.648;24.568;2023-08-06T08:23:25;85003.59;;;23.77;51.56
41312;BME280;27061;41.648;24.568;2023-08-06T08:25:52;84995.94;;;23.75;49.81
41312;BME280;27061;41.648;24.568;2023-08-06T08:28:19;85015.50;;;23.88;46.21
41312;BME280;27061;41.648;24.568;2023-08-06T08:30:46;85002.94;;;23.95;46.36
41312;BME280;27061;41.648;24.568;2023-08-06T08:33:14;84992.00;;;23.81;46.12
41312;BME280;27061;41.648;24.568;2023-08-06T08:35:41;85006.97;;;23.98;43.59
41312;BME280;27061;41.648;24.568;2023-08-06T08:38:08;84973.66;;;23.71;44.58
41312;BME280;27061;41.648;24.568;2023-08-06T08:40:42;84957.78;;;23.85;47.42
41312;BME280;27061;41.648;24.568;2023-08-06T08:43:12;84997.97;;;24.15;44.54
41312;BME280;27061;41.648;24.568;2023-08-06T08:45:42;84961.75;;;23.79;45.19
41312;BME280;27061;41.648;24.568;2023-08-06T08:48:12;84985.63;;;24.10;43.15
41312;BME280;27061;41.648;24.568;2023-08-06T08:50:41;84982.13;;;24.09;41.32
41312;BME280;27061;41.648;24.568;2023-08-06T08:53:11;84975.28;;;24.06;41.98
41312;BME280;27061;41.648;24.568;2023-08-06T08:55:40;84973.03;;;23.98;41.85
41312;BME280;27061;41.648;24.568;2023-08-06T08:58:10;84972.53;;;24.15;42.30
41312;BME280;27061;41.648;24.568;2023-08-06T09:00:37;84978.41;;;24.02;40.04
41312;BME280;27061;41.648;24.568;2023-08-06T09:03:06;84993.44;;;24.29;38.21
41312;BME280;27061;41.648;24.568;2023-08-06T09:05:34;84987.31;;;24.16;37.77
41312;BME280;27061;41.648;24.568;2023-08-06T09:08:05;84963.09;;;23.80;38.76
41312;BME280;27061;41.648;24.568;2023-08-06T09:10:32;85002.06;;;24.27;39.43
41312;BME280;27061;41.648;24.568;2023-08-06T09:13:00;84998.81;;;24.33;40.75
41312;BME280;27061;41.648;24.568;2023-08-06T09:15:29;85000.66;;;24.36;42.10
41312;BME280;27061;41.648;24.568;2023-08-06T09:17:57;84974.03;;;24.33;40.68
41312;BME280;27061;41.648;24.568;2023-08-06T09:20:24;84991.34;;;24.57;40.56
41312;BME280;27061;41.648;24.568;2023-08-06T09:22:54;84989.84;;;24.39;39.92
41312;BME280;27061;41.648;24.568;2023-08-06T09:25:22;85006.66;;;24.60;41.87
41312;BME280;27061;41.648;24.568;2023-08-06T09:27:55;85000.94;;;24.79;40.93
41312;BME280;27061;41.648;24.568;2023-08-06T09:30:33;85002.28;;;25.00;39.98
41312;BME280;27061;41.648;24.568;2023-08-06T09:33:01;84919.38;;;24.46;40.31
41312;BME280;27061;41.648;24.568;2023-08-06T09:35:29;84990.31;;;25.08;40.10
41312;BME280;27061;41.648;24.568;2023-08-06T09:38:09;84996.69;;;25.17;39.48
41312;BME280;27061;41.648;24.568;2023-08-06T09:40:38;84990.47;;;25.06;39.55
41312;BME280;27061;41.648;24.568;2023-08-06T09:43:06;84980.25;;;25.00;41.70
41312;BME280;27061;41.648;24.568;2023-08-06T09:45:37;84980.91;;;25.29;39.26
41312;BME280;27061;41.648;24.568;2023-08-06T09:48:08;84930.31;;;24.97;39.94
41312;BME280;27061;41.648;24.568;2023-08-06T09:50:37;84967.75;;;25.34;37.23
41312;BME280;27061;41.648;24.568;2023-08-06T09:53:06;84958.38;;;25.18;36.61
41312;BME280;27061;41.648;24.568;2023-08-06T09:55:34;84978.56;;;25.68;39.16
41312;BME280;27061;41.648;24.568;2023-08-06T09:58:02;84986.47;;;25.48;37.07
41312;BME280;27061;41.648;24.568;2023-08-06T10:00:30;84988.16;;;25.53;36.50
41312;BME280;27061;41.648;24.568;2023-08-06T10:03:02;84976.34;;;25.60;41.85
41312;BME280;27061;41.648;24.568;2023-08-06T10:05:29;84986.22;;;25.61;38.73
41312;BME280;27061;41.648;24.568;2023-08-06T10:07:59;84993.56;;;25.66;34.61
41312;BME280;27061;41.648;24.568;2023-08-06T10:10:27;85000.63;;;25.84;34.46
41312;BME280;27061;41.648;24.568;2023-08-06T10:12:56;84987.28;;;25.83;33.29
41312;BME280;27061;41.648;24.568;2023-08-06T10:15:27;85009.63;;;25.87;34.11
41312;BME280;27061;41.648;24.568;2023-08-06T10:17:57;84990.28;;;25.81;34.85
41312;BME280;27061;41.648;24.568;2023-08-06T10:20:25;84972.69;;;25.52;34.66
41312;BME280;27061;41.648;24.568;2023-08-06T10:23:03;85024.00;;;26.02;35.07
41312;BME280;27061;41.648;24.568;2023-08-06T10:25:33;85003.00;;;26.08;34.71
41312;BME280;27061;41.648;24.568;2023-08-06T10:28:08;85003.00;;;26.08;37.97
41312;BME280;27061;41.648;24.568;2023-08-06T10:30:46;85019.19;;;26.18;36.91
41312;BME280;27061;41.648;24.568;2023-08-06T10:33:14;84999.31;;;26.09;35.23
41312;BME280;27061;41.648;24.568;2023-08-06T10:35:44;85021.69;;;26.13;32.03
41312;BME280;27061;41.648;24.568;2023-08-06T10:38:14;85009.31;;;25.91;33.16
41312;BME280;27061;41.648;24.568;2023-08-06T10:41:03;85043.03;;;25.95;34.77
41312;BME280;27061;41.648;24.568;2023-08-06T10:43:35;85036.00;;;25.94;34.64
41312;BME280;27061;41.648;24.568;2023-08-06T10:46:04;85045.47;;;25.82;35.04
41312;BME280;27061;41.648;24.568;2023-08-06T10:48:44;85043.97;;;25.74;34.79
41312;BME280;27061;41.648;24.568;2023-08-06T10:51:13;85039.31;;;25.88;34.94
41312;BME280;27061;41.648;24.568;2023-08-06T10:53:43;85052.38;;;26.02;34.68
41312;BME280;27061;41.648;24.568;2023-08-06T10:56:14;85042.03;;;26.07;35.85
41312;BME280;27061;41.648;24.568;2023-08-06T10:58:45;84911.38;;;25.12;36.29
41312;BME280;27061;41.648;24.568;2023-08-06T11:01:13;85031.34;;;25.99;36.22
41312;BME280;27061;41.648;24.568;2023-08-06T11:03:45;85034.38;;;26.14;36.64
41312;BME280;27061;41.648;24.568;2023-08-06T11:06:22;85009.16;;;26.02;35.98
41312;BME280;27061;41.648;24.568;2023-08-06T11:08:51;85034.09;;;26.27;37.11
41312;BME280;27061;41.648;24.568;2023-08-06T11:11:20;85012.38;;;26.15;34.80
41312;BME280;27061;41.648;24.568;2023-08-06T11:13:49;85011.03;;;26.22;34.57
41312;BME280;27061;41.648;24.568;2023-08-06T11:16:18;85023.44;;;26.36;33.42
41312;BME280;27061;41.648;24.568;2023-08-06T11:18:46;85028.91;;;26.30;33.34
41312;BME280;27061;41.648;24.568;2023-08-06T11:21:14;85041.13;;;26.54;33.64
41312;BME280;27061;41.648;24.568;2023-08-06T11:23:41;85060.53;;;26.69;32.94
41312;BME280;27061;41.648;24.568;2023-08-06T11:26:08;85062.50;;;26.70;33.91
41312;BME280;27061;41.648;24.568;2023-08-06T11:28:35;84994.69;;;26.14;33.37
41312;BME280;27061;41.648;24.568;2023-08-06T11:31:02;85036.44;;;26.50;32.29
41312;BME280;27061;41.648;24.568;2023-08-06T11:33:30;85060.50;;;26.60;33.88
41312;BME280;27061;41.648;24.568;2023-08-06T11:35:59;85007.72;;;26.29;32.58
41312;BME280;27061;41.648;24.568;2023-08-06T11:38:27;85060.84;;;26.56;33.63
41312;BME280;27061;41.648;24.568;2023-08-06T11:40:55;85057.00;;;26.68;34.26
41312;BME280;27061;41.648;24.568;2023-08-06T11:43:23;85022.78;;;26.53;34.58
41312;BME280;27061;41.648;24.568;2023-08-06T11:45:50;85053.19;;;26.98;33.10
41312;BME280;27061;41.648;24.568;2023-08-06T11:48:19;85028.13;;;26.74;33.27
41312;BME280;27061;41.648;24.568;2023-08-06T11:50:46;85056.16;;;27.13;34.64
41312;BME280;27061;41.648;24.568;2023-08-06T11:53:14;85076.06;;;27.30;34.19
41312;BME280;27061;41.648;24.568;2023-08-06T11:55:42;85077.22;;;27.24;33.40
41312;BME280;27061;41.648;24.568;2023-08-06T11:58:10;85055.19;;;27.08;33.43
41312;BME280;27061;41.648;24.568;2023-08-06T12:00:38;85005.41;;;26.40;32.46
41312;BME280;27061;41.648;24.568;2023-08-06T12:03:06;85057.69;;;26.86;32.48
41312;BME280;27061;41.648;24.568;2023-08-06T12:05:33;85052.50;;;26.88;32.30
41312;BME280;27061;41.648;24.568;2023-08-06T12:08:02;85081.56;;;27.15;33.71
41312;BME280;27061;41.648;24.568;2023-08-06T12:10:32;85093.59;;;27.15;31.87
41312;BME280;27061;41.648;24.568;2023-08-06T12:12:59;85086.25;;;27.27;33.93
41312;BME280;27061;41.648;24.568;2023-08-06T12:15:27;85048.00;;;27.00;32.26
41312;BME280;27061;41.648;24.568;2023-08-06T12:17:56;85044.81;;;26.78;31.56
41312;BME280;27061;41.648;24.568;2023-08-06T12:20:27;85069.06;;;26.94;31.44
41312;BME280;27061;41.648;24.568;2023-08-06T12:22:55;85093.59;;;27.15;32.30
41312;BME280;27061;41.648;24.568;2023-08-06T12:25:22;85093.47;;;27.00;30.82
41312;BME280;27061;41.648;24.568;2023-08-06T12:27:50;85030.44;;;26.46;31.53
41312;BME280;27061;41.648;24.568;2023-08-06T12:30:17;85081.25;;;26.93;31.59
41312;BME280;27061;41.648;24.568;2023-08-06T12:32:45;85062.84;;;26.66;31.60
41312;BME280;27061;41.648;24.568;2023-08-06T12:35:12;85102.28;;;27.05;32.71
41312;BME280;27061;41.648;24.568;2023-08-06T12:37:40;85048.97;;;26.62;30.18
41312;BME280;27061;41.648;24.568;2023-08-06T12:40:10;85085.75;;;27.16;31.32
41312;BME280;27061;41.648;24.568;2023-08-06T12:42:57;85072.72;;;27.02;31.69
41312;BME280;27061;41.648;24.568;2023-08-06T12:45:26;85039.31;;;26.85;31.02
41312;BME280;27061;41.648;24.568;2023-08-06T12:47:53;85083.09;;;27.05;32.76
41312;BME280;27061;41.648;24.568;2023-08-06T12:50:21;85053.19;;;26.98;33.82
41312;BME280;27061;41.648;24.568;2023-08-06T12:52:48;85062.53;;;27.13;31.69
41312;BME280;27061;41.648;24.568;2023-08-06T12:55:16;85067.53;;;27.13;31.45
41312;BME280;27061;41.648;24.568;2023-08-06T12:57:43;85082.91;;;27.33;32.03
41312;BME280;27061;41.648;24.568;2023-08-06T13:00:25;85028.63;;;27.11;33.65
41312;BME280;27061;41.648;24.568;2023-08-06T13:02:53;85063.13;;;27.48;33.27
41312;BME280;27061;41.648;24.568;2023-08-06T13:05:20;85081.84;;;27.71;31.67
41312;BME280;27061;41.648;24.568;2023-08-06T13:07:47;85017.06;;;27.22;31.90
41312;BME280;27061;41.648;24.568;2023-08-06T13:10:14;85085.88;;;27.48;31.89
41312;BME280;27061;41.648;24.568;2023-08-06T13:12:42;85071.00;;;27.56;31.44
41312;BME280;27061;41.648;24.568;2023-08-06T13:15:09;85089.25;;;27.42;31.91